Kekaha, HI

3:42 AM HST on March 24, 2017 (GMT -1000)
LizKauai | | Change Station

Elev 62 ft 21.96 °N, 159.67 °W | Updated 3 minutes ago

Clear
Clear
67.8 °F
Feels Like 67.8 °F
N
1.7
Wind Variable Wind from NNW

Today
High -- | Low -- °F
--% Chance of Precip.
Yesterday
High -- | Low -- °F
Precip. -- in
Pressure 30.14 in
Visibility 10.0 miles
Clouds Few 1500 ft
Scattered Clouds 2400 ft
Scattered Clouds 3700 ft
Dew Point 59 °F
Humidity 73%
Rainfall 0.00 in
Snow Depth Not available.
6:38 AM 6:51 PM
Waning Crescent, 15% visible
SPECI PHLI 241326Z 27006KT 10SM FEW015 SCT024 SCT037 21/19 A3014 RMK AO2 T02110194 $
Pressure 30.14 in
Visibility 10.0 miles
Clouds Few 1500 ft
Scattered Clouds 2400 ft
Scattered Clouds 3700 ft
Dew Point 59 °F
Humidity 73%
Rainfall 0.00 in
Snow Depth Not available.
6:38 AM 6:51 PM
Waning Crescent, 15% visible
SPECI PHLI 241326Z 27006KT 10SM FEW015 SCT024 SCT037 21/19 A3014 RMK AO2 T02110194 $

Get Severe Weather Alerts

Thanks for signing up!

Be on the lookout for a verification email in your inbox.

You'll start receiving the daily forecast at 8 AM.

×

10-Day Weather Forecast

Almanac

Astronomy

Mar. 24, 2017 Rise Set
Actual Time
Civil Twilight
Nautical Twilight
Astronomical Twilight
Moon
Length of Visible Light
Length of Day
Tomorrow will be .
, % of the Moon is Illuminated

Today's Extremes

State Highs State Lows

Community

WunderPhotos

Upload Photos

1,962,540 photos uploaded!

WunderBlog® & News

Nearby

Air Quality

  Air Quality AQ Index Pollutant
Not available.

Snow Depth

Station Depth Elevation

Earthquake Activity

City Distance Mag. Time & Date
Minimum magnitude displayed is 2.5.

Earthquake Activity

City Distance Mag. Time & Date
Minimum magnitude displayed is 2.5.

Coastal Water Temperatures

Place Temperature

Stations

Nearby Weather Stations

Station Location Temp. Windchill Dew Point Humidity Wind Precip. Elev Updated Type
                   

Watches & Warnings

There are currently no watches in effect.